Time;durP1;ratioP1;P1;durP2;ratioP2;P2;SDS_P1;SDS_P2;PMS_P1;PMS_P2;Temp;Humidity;BMP_temperature;BMP_pressure;BME280_temperature;BME280_humidity;BME280_pressure;Samples;Min_cycle;Max_cycle;Signal;HPM_P1;HPM_P2
2022/08/24 00:01:50;;;;;;;10.43;3.40;;;;;;;20.18;63.86;99444.88;5063553;28;20028;-57
2022/08/24 00:04:15;;;;;;;13.38;3.55;;;;;;;20.13;63.57;99446.91;5070385;28;20455;-56
2022/08/24 00:06:40;;;;;;;8.30;3.65;;;;;;;20.14;63.81;99443.06;5073232;28;20040;-56
2022/08/24 00:09:06;;;;;;;10.30;3.75;;;;;;;20.19;63.90;99434.81;5062847;28;20048;-57
2022/08/24 00:11:31;;;;;;;10.77;3.67;;;;;;;20.16;63.98;99447.09;5064081;28;20509;-55
2022/08/24 00:13:57;;;;;;;13.50;3.83;;;;;;;20.20;64.09;99444.59;5056337;28;20028;-56
2022/08/24 00:16:22;;;;;;;10.32;3.20;;;;;;;20.32;63.88;99436.75;5066646;28;20027;-56
2022/08/24 00:18:48;;;;;;;8.98;3.85;;;;;;;20.24;63.64;99440.97;5070021;28;20040;-57
2022/08/24 00:21:13;;;;;;;12.48;3.38;;;;;;;20.24;63.49;99445.59;5070038;28;20070;-56
2022/08/24 00:23:39;;;;;;;6.97;3.10;;;;;;;20.14;63.74;99451.22;5063888;28;20111;-56
2022/08/24 00:26:05;;;;;;;9.23;3.53;;;;;;;20.21;64.17;99443.47;5069647;28;20141;-56
2022/08/24 00:28:30;;;;;;;5.72;3.08;;;;;;;20.21;63.50;99443.47;5057455;28;20037;-56
2022/08/24 00:30:55;;;;;;;9.98;3.67;;;;;;;20.14;64.63;99443.06;5064641;28;20469;-56
2022/08/24 00:33:21;;;;;;;16.30;3.90;;;;;;;20.07;64.25;99443.47;5101963;28;20024;-56
2022/08/24 00:35:46;;;;;;;8.90;3.40;;;;;;;20.03;65.00;99437.81;5063548;28;20024;-56
2022/08/24 00:38:12;;;;;;;7.80;3.63;;;;;;;20.07;64.64;99453.53;5059198;28;20029;-56
2022/08/24 00:40:39;;;;;;;11.98;3.80;;;;;;;20.10;64.17;99442.88;5069895;28;20051;-56
2022/08/24 00:43:06;;;;;;;12.77;3.20;;;;;;;20.09;64.80;99446.69;5054544;28;20029;-57
2022/08/24 00:45:33;;;;;;;13.13;3.75;;;;;;;19.89;65.45;99436.16;5060144;28;20025;-57
2022/08/24 00:48:02;;;;;;;8.90;3.60;;;;;;;19.92;65.26;99438.28;5049339;28;20455;-56
2022/08/24 00:50:47;;;;;;;11.90;3.70;;;;;;;19.98;64.64;99445.28;5061027;28;20399;-56
2022/08/24 00:53:25;;;;;;;8.13;3.60;;;;;;;19.74;65.32;99439.97;5067491;28;20040;-56
2022/08/24 00:55:53;;;;;;;11.15;3.80;;;;;;;19.63;65.55;99449.38;5061072;28;20021;-56
2022/08/24 00:58:22;;;;;;;12.30;4.10;;;;;;;19.48;65.90;99443.06;5052748;28;20116;-56
2022/08/24 01:00:54;;;;;;;8.95;3.67;;;;;;;19.33;66.20;99446.03;5072817;28;20023;-56
2022/08/24 01:03:19;;;;;;;17.83;4.20;;;;;;;19.06;67.13;99447.50;5092356;28;20028;-56
2022/08/24 01:05:45;;;;;;;9.93;4.28;;;;;;;18.80;68.88;99452.47;5062115;28;20503;-57
2022/08/24 01:08:11;;;;;;;14.43;4.43;;;;;;;19.19;67.70;99445.94;5067521;28;20534;-56
2022/08/24 01:10:42;;;;;;;9.68;3.90;;;;;;;19.31;66.93;99442.78;5068153;28;20031;-57
2022/08/24 01:13:09;;;;;;;23.40;4.78;;;;;;;19.10;67.39;99448.53;5068045;28;20078;-57
2022/08/24 01:15:37;;;;;;;7.63;3.65;;;;;;;18.95;67.63;99440.59;5101729;28;20054;-56
2022/08/24 01:20:51;;;;;;;11.77;4.53;;;;;;;18.46;70.43;99449.88;5063344;28;20040;-56
2022/08/24 01:23:36;;;;;;;10.15;3.95;;;;;;;18.48;70.19;99450.41;5063479;28;20040;-57
2022/08/24 01:26:02;;;;;;;12.70;4.07;;;;;;;18.53;69.77;99453.03;5058533;28;20028;-57
2022/08/24 01:28:28;;;;;;;9.60;4.50;;;;;;;18.61;69.24;99457.81;5059796;28;20544;-57
2022/08/24 01:30:54;;;;;;;13.27;4.30;;;;;;;18.60;69.23;99453.50;5048316;28;20028;-56
2022/08/24 01:33:25;;;;;;;11.00;3.78;;;;;;;18.66;69.13;99460.47;5058427;28;20021;-57
2022/08/24 01:35:53;;;;;;;20.52;5.22;;;;;;;18.71;68.76;99457.69;5094322;28;20028;-56
2022/08/24 01:38:19;;;;;;;14.23;4.70;;;;;;;18.70;68.76;99463.44;5050545;28;20028;-56
2022/08/24 01:40:51;;;;;;;13.93;4.40;;;;;;;18.65;69.14;99469.72;5051634;28;20032;-56
2022/08/24 01:43:16;;;;;;;8.32;4.50;;;;;;;18.57;69.77;99466.84;5053461;28;20031;-56
2022/08/24 01:45:42;;;;;;;11.65;4.78;;;;;;;18.42;70.31;99471.34;5058169;28;20025;-57
2022/08/24 01:48:08;;;;;;;11.57;4.72;;;;;;;18.41;70.30;99460.78;5061699;28;20047;-57
2022/08/24 01:50:33;;;;;;;13.05;5.10;;;;;;;18.39;70.46;99468.41;5067201;28;20033;-56
2022/08/24 01:53:01;;;;;;;16.90;4.82;;;;;;;18.27;71.07;99464.19;5063440;28;20025;-55
2022/08/24 01:55:27;;;;;;;15.40;5.25;;;;;;;18.28;70.53;99459.56;5099635;28;20040;-56
2022/08/24 01:57:52;;;;;;;12.23;4.75;;;;;;;18.19;71.02;99456.66;5052875;28;20053;-56
2022/08/24 02:00:18;;;;;;;14.07;4.85;;;;;;;18.19;71.88;99456.66;5063927;28;20051;-56
2022/08/24 02:02:43;;;;;;;19.85;5.30;;;;;;;18.16;71.23;99465.38;5069179;28;20141;-57
2022/08/24 02:05:09;;;;;;;18.67;5.65;;;;;;;18.11;71.59;99460.81;5068349;28;20044;-56
2022/08/24 02:07:35;;;;;;;15.48;5.50;;;;;;;17.98;72.10;99460.69;5069056;28;20028;-56
2022/08/24 02:10:00;;;;;;;14.02;4.60;;;;;;;18.07;71.70;99469.78;5062903;28;20024;-57
2022/08/24 02:12:26;;;;;;;13.65;5.28;;;;;;;17.87;71.04;99463.50;5063494;28;20036;-56
2022/08/24 02:14:51;;;;;;;12.05;4.97;;;;;;;17.60;71.99;99465.84;5073088;28;20158;-56
2022/08/24 02:17:17;;;;;;;13.40;4.50;;;;;;;17.51;72.45;99472.97;5064512;28;20192;-56
2022/08/24 02:19:43;;;;;;;33.47;5.53;;;;;;;17.39;74.48;99470.59;5065078;28;20472;-57
2022/08/24 02:22:08;;;;;;;19.52;5.00;;;;;;;17.57;73.80;99471.81;5064365;28;20028;-56
2022/08/24 02:24:34;;;;;;;16.38;4.90;;;;;;;17.57;73.05;99466.41;5065768;28;20040;-55
2022/08/24 02:26:59;;;;;;;10.52;4.97;;;;;;;17.49;73.41;99477.84;5067231;28;20051;-56
2022/08/24 02:29:24;;;;;;;12.30;4.80;;;;;;;17.50;72.85;99471.31;5057662;28;20027;-56
2022/08/24 02:31:50;;;;;;;13.57;4.75;;;;;;;17.49;73.29;99475.94;5058292;28;20037;-57
2022/08/24 02:34:15;;;;;;;11.23;4.82;;;;;;;17.45;72.67;99470.28;5059560;28;20473;-56
2022/08/24 02:36:41;;;;;;;16.52;5.13;;;;;;;17.46;72.17;99473.81;5062941;28;20023;-56
2022/08/24 02:39:06;;;;;;;14.20;5.00;;;;;;;17.27;73.33;99473.66;5068809;28;20394;-56
2022/08/24 02:41:32;;;;;;;15.93;4.85;;;;;;;17.06;74.46;99478.38;5064767;28;20711;-56
2022/08/24 02:43:57;;;;;;;13.57;4.97;;;;;;;17.08;74.11;99480.81;5071417;28;20281;-55
2022/08/24 02:46:26;;;;;;;12.82;4.70;;;;;;;17.07;74.15;99473.78;5065434;28;20039;-55
2022/08/24 02:48:51;;;;;;;9.68;4.82;;;;;;;17.03;74.62;99474.34;5060625;28;20025;-56
2022/08/24 02:51:20;;;;;;;14.57;4.85;;;;;;;17.07;75.14;99477.28;5070347;28;20099;-57
2022/08/24 02:53:46;;;;;;;15.85;5.47;;;;;;;16.89;75.53;99473.31;5066695;28;20025;-56
2022/08/24 02:56:12;;;;;;;12.93;5.20;;;;;;;16.89;75.57;99483.34;5072137;28;20032;-56
2022/08/24 02:58:37;;;;;;;13.15;4.90;;;;;;;17.16;74.97;99488.34;5071952;28;20020;-56
2022/08/24 03:01:02;;;;;;;20.25;5.15;;;;;;;17.18;74.48;99483.47;5072259;28;20039;-56
2022/08/24 03:03:28;;;;;;;10.23;5.28;;;;;;;17.01;74.41;99486.53;5071995;28;20029;-56
2022/08/24 03:05:53;;;;;;;18.75;5.38;;;;;;;16.94;74.84;99486.81;5071059;28;20070;-56
2022/08/24 03:08:19;;;;;;;11.02;4.90;;;;;;;16.74;74.45;99487.69;5071915;28;20033;-56
2022/08/24 03:10:44;;;;;;;12.15;4.38;;;;;;;16.79;72.59;99481.50;5071807;28;20025;-55
2022/08/24 03:13:10;;;;;;;12.52;4.55;;;;;;;16.87;71.95;99488.22;5061316;28;20036;-56
2022/08/24 03:15:35;;;;;;;16.02;5.00;;;;;;;16.85;72.56;99484.97;5059382;28;20517;-56
2022/08/24 03:18:00;;;;;;;11.65;4.55;;;;;;;16.91;71.91;99486.59;5065301;28;20073;-56
2022/08/24 03:20:26;;;;;;;12.38;4.68;;;;;;;16.84;71.94;99486.88;5065931;28;20032;-56
2022/08/24 03:22:51;;;;;;;14.45;4.57;;;;;;;16.79;72.25;99484.19;5063558;28;20024;-56
2022/08/24 03:25:17;;;;;;;14.35;4.88;;;;;;;17.01;72.20;99483.81;5071600;28;20060;-56
2022/08/24 03:27:42;;;;;;;16.58;4.55;;;;;;;17.10;71.86;99489.44;5066121;28;20391;-56
2022/08/24 03:30:11;;;;;;;13.73;4.72;;;;;;;17.16;72.53;99493.78;5064125;28;20519;-56
2022/08/24 03:32:37;;;;;;;16.67;4.70;;;;;;;17.10;72.15;99484.03;5060805;28;20091;-56
2022/08/24 03:35:03;;;;;;;13.70;4.93;;;;;;;17.00;72.36;99480.31;5065285;28;20037;-56
2022/08/24 03:37:28;;;;;;;13.77;4.53;;;;;;;16.90;72.09;99488.50;5064409;28;20051;-56
2022/08/24 03:39:54;;;;;;;11.38;4.75;;;;;;;16.78;73.22;99485.28;5069589;28;20021;-56
2022/08/24 03:42:19;;;;;;;11.45;4.95;;;;;;;16.67;72.98;99489.06;5065566;28;20036;-54
2022/08/24 03:44:44;;;;;;;16.30;5.28;;;;;;;16.54;74.36;99483.16;5057951;28;20384;-56
2022/08/24 03:47:10;;;;;;;9.95;4.68;;;;;;;16.67;74.11;99475.53;5065546;28;20447;-56
2022/08/24 03:49:38;;;;;;;10.52;5.00;;;;;;;16.53;73.92;99481.56;5063929;28;20028;-55
2022/08/24 03:52:04;;;;;;;13.77;5.65;;;;;;;16.36;74.99;99481.88;5066849;28;20024;-56
2022/08/24 03:54:30;;;;;;;14.43;5.80;;;;;;;16.37;74.97;99477.25;5067463;28;20047;-55
2022/08/24 03:56:58;;;;;;;12.85;5.10;;;;;;;16.27;76.29;99471.88;5066518;28;20360;-56
2022/08/24 03:59:24;;;;;;;11.32;5.38;;;;;;;16.22;76.46;99471.88;5060918;28;20483;-56
2022/08/24 04:01:50;;;;;;;8.63;4.60;;;;;;;16.05;76.64;99480.28;5062569;28;20028;-56
2022/08/24 04:04:15;;;;;;;10.93;4.70;;;;;;;16.31;76.79;99475.66;5066356;28;20036;-56
2022/08/24 04:06:43;;;;;;;12.10;4.90;;;;;;;16.52;74.97;99474.50;5052819;28;20029;-57
2022/08/24 04:09:09;;;;;;;13.48;4.80;;;;;;;16.49;74.15;99474.25;5058942;28;20557;-55
2022/08/24 04:11:34;;;;;;;13.05;5.43;;;;;;;16.22;75.67;99478.09;5061695;28;20028;-56
2022/08/24 04:14:00;;;;;;;16.67;5.78;;;;;;;16.35;75.52;99479.47;5069110;28;20043;-56
2022/08/24 04:16:26;;;;;;;17.25;5.80;;;;;;;15.91;77.30;99480.06;5061780;28;20181;-56
2022/08/24 04:18:51;;;;;;;11.45;5.10;;;;;;;15.90;77.77;99481.94;5058214;28;20118;-56
2022/08/24 04:21:20;;;;;;;12.32;5.65;;;;;;;16.11;77.95;99482.72;5062312;28;20020;-56
2022/08/24 04:23:46;;;;;;;19.48;5.38;;;;;;;16.19;76.39;99484.06;5063576;28;20020;-55
2022/08/24 04:26:12;;;;;;;17.30;5.40;;;;;;;16.33;76.41;99484.31;5053182;28;20490;-56
2022/08/24 04:28:37;;;;;;;14.20;5.50;;;;;;;16.35;75.73;99487.56;5052806;28;20028;-56
2022/08/24 04:31:04;;;;;;;18.40;5.80;;;;;;;16.12;76.59;99487.03;5068722;28;20025;-56
2022/08/24 04:33:30;;;;;;;11.30;5.32;;;;;;;16.04;77.08;99493.00;5065805;28;20050;-55
2022/08/24 04:35:55;;;;;;;15.35;5.55;;;;;;;16.05;77.78;99491.09;5049788;28;20024;-56
2022/08/24 04:38:21;;;;;;;9.88;4.78;;;;;;;16.36;77.05;99486.47;5064122;28;20086;-56
2022/08/24 04:40:47;;;;;;;21.23;5.65;;;;;;;16.48;75.33;99495.09;5066066;28;20490;-56
2022/08/24 04:43:13;;;;;;;15.48;5.22;;;;;;;16.49;75.58;99496.72;5069626;28;20145;-57
2022/08/24 04:45:40;;;;;;;14.65;6.05;;;;;;;16.70;74.08;99493.94;5069404;28;20033;-56
2022/08/24 04:48:06;;;;;;;19.45;5.80;;;;;;;16.45;76.32;99492.94;5061214;28;20450;-56
2022/08/24 04:50:35;;;;;;;18.80;6.03;;;;;;;17.22;74.47;99492.63;5069639;28;20546;-55
2022/08/24 04:53:04;;;;;;;21.02;5.85;;;;;;;17.31;73.15;99496.38;5070260;28;20028;-56
2022/08/24 04:55:29;;;;;;;18.73;5.90;;;;;;;18.39;69.03;99488.19;5062909;28;20021;-56
2022/08/24 04:57:55;;;;;;;23.08;5.65;;;;;;;19.42;64.59;99497.78;5068588;28;20077;-57
2022/08/24 05:00:20;;;;;;;16.90;5.70;;;;;;;19.90;61.87;99503.09;5058157;28;20036;-57
2022/08/24 05:02:46;;;;;;;13.13;5.88;;;;;;;20.69;59.88;99508.47;5056799;28;20086;-56
2022/08/24 05:05:11;;;;;;;20.55;6.05;;;;;;;19.50;62.33;99508.81;5062901;28;20550;-56
2022/08/24 05:07:37;;;;;;;20.45;5.50;;;;;;;19.61;62.43;99509.47;5065911;28;20482;-57
2022/08/24 05:10:03;;;;;;;17.52;5.15;;;;;;;20.41;60.20;99518.50;5098170;28;20025;-56
2022/08/24 05:12:29;;;;;;;17.33;5.50;;;;;;;19.97;61.52;99520.63;5059727;28;20020;-56
2022/08/24 05:14:54;;;;;;;13.77;5.25;;;;;;;19.76;61.30;99524.78;5062924;28;20032;-57
2022/08/24 05:17:20;;;;;;;16.33;5.43;;;;;;;19.11;62.86;99518.06;5055878;28;20025;-56
2022/08/24 05:19:45;;;;;;;16.55;5.43;;;;;;;19.54;62.32;99514.47;5071715;28;20250;-57
2022/08/24 05:22:11;;;;;;;19.10;5.70;;;;;;;20.92;57.61;99516.72;5061308;28;20029;-56
2022/08/24 05:24:36;;;;;;;18.67;5.57;;;;;;;20.03;59.91;99527.59;5056720;28;20028;-56
2022/08/24 05:27:02;;;;;;;14.88;5.80;;;;;;;20.47;59.73;99523.56;5051867;28;20025;-56
2022/08/24 05:29:28;;;;;;;16.67;5.07;;;;;;;21.37;56.24;99533.19;5067986;28;20047;-56
2022/08/24 05:31:54;;;;;;;18.90;5.65;;;;;;;20.78;57.29;99531.16;5054882;28;20028;-56
2022/08/24 05:34:19;;;;;;;16.25;5.40;;;;;;;20.31;59.82;99524.94;5056294;28;20497;-56
2022/08/24 05:36:45;;;;;;;14.75;5.32;;;;;;;21.06;58.48;99529.22;5068591;28;20732;-56
2022/08/24 05:39:12;;;;;;;11.15;5.72;;;;;;;22.58;53.49;99534.09;5069192;28;20032;-56
2022/08/24 05:41:38;;;;;;;21.25;5.57;;;;;;;22.98;51.95;99534.09;5094063;28;20032;-56
2022/08/24 05:44:04;;;;;;;14.48;5.55;;;;;;;23.33;50.26;99531.44;5061112;28;20395;-56
2022/08/24 05:46:30;;;;;;;26.83;5.57;;;;;;;24.95;46.82;99536.47;5036640;28;20033;-61
2022/08/24 05:48:57;;;;;;;13.40;5.25;;;;;;;25.79;44.86;99542.84;5050362;28;20119;-56
2022/08/24 05:51:22;;;;;;;18.52;5.50;;;;;;;25.12;45.84;99536.38;5062993;28;20069;-56
2022/08/24 05:53:47;;;;;;;15.30;5.38;;;;;;;25.63;45.17;99538.31;5059891;28;20475;-56
2022/08/24 05:56:14;;;;;;;12.93;5.00;;;;;;;24.96;46.14;99541.66;5061324;28;20040;-56
2022/08/24 05:58:39;;;;;;;17.38;5.72;;;;;;;24.86;46.61;99541.19;5065801;28;20063;-56
2022/08/24 06:01:09;;;;;;;18.08;5.53;;;;;;;25.45;45.54;99540.41;5052857;28;20048;-56
2022/08/24 06:03:36;;;;;;;18.67;5.47;;;;;;;25.37;45.41;99544.81;5056687;28;20032;-57
2022/08/24 06:06:01;;;;;;;20.55;5.47;;;;;;;25.52;45.49;99546.94;5068031;28;20040;-57
2022/08/24 06:08:27;;;;;;;13.15;5.60;;;;;;;25.38;45.29;99551.88;5062505;28;20450;-57
2022/08/24 06:10:52;;;;;;;16.55;5.32;;;;;;;25.94;44.56;99557.94;5068997;28;20387;-57
2022/08/24 06:13:18;;;;;;;18.55;5.82;;;;;;;27.46;41.45;99550.81;5064342;28;20348;-55
2022/08/24 06:15:43;;;;;;;20.25;4.88;;;;;;;26.17;43.61;99558.34;5065221;28;20530;-57
2022/08/24 06:18:08;;;;;;;14.43;5.47;;;;;;;25.20;46.70;99562.19;5070499;28;20429;-57
2022/08/24 06:20:40;;;;;;;15.93;5.30;;;;;;;25.79;45.58;99566.78;5069393;28;20471;-56
2022/08/24 06:23:05;;;;;;;15.43;4.93;;;;;;;26.75;43.58;99569.38;5066963;28;20506;-56
2022/08/24 06:28:23;;;;;;;18.80;4.68;;;;;;;27.66;41.36;99568.31;5055525;28;20040;-56
2022/08/24 06:30:49;;;;;;;13.60;4.80;;;;;;;28.06;40.10;99564.72;5071070;28;20025;-56
2022/08/24 06:33:14;;;;;;;16.45;4.70;;;;;;;28.99;38.62;99576.22;5072649;28;20075;-57
2022/08/24 06:35:40;;;;;;;16.35;5.00;;;;;;;28.66;38.86;99573.03;5059967;28;20110;-56
2022/08/24 06:38:05;;;;;;;17.70;5.32;;;;;;;29.07;38.21;99570.88;5055770;28;20344;-57
2022/08/24 06:40:31;;;;;;;22.95;5.80;;;;;;;28.75;39.13;99573.63;5059658;28;20029;-56
2022/08/24 06:43:01;;;;;;;22.95;5.68;;;;;;;28.81;38.88;99572.22;5060308;28;20021;-57
2022/08/24 06:45:26;;;;;;;25.38;5.75;;;;;;;29.31;38.09;99576.19;5068492;28;20059;-57
2022/08/24 06:47:51;;;;;;;28.98;5.85;;;;;;;29.45;38.11;99581.22;5062953;28;20487;-56
2022/08/24 06:50:17;;;;;;;21.08;5.60;;;;;;;29.17;38.29;99567.56;5069957;28;20028;-56
2022/08/24 06:52:42;;;;;;;18.00;5.80;;;;;;;29.13;38.54;99569.44;5068809;28;21135;-57
2022/08/24 06:55:09;;;;;;;22.55;5.20;;;;;;;28.73;39.01;99570.44;5063023;28;20536;-56
2022/08/24 06:57:34;;;;;;;17.95;5.60;;;;;;;29.45;37.95;99578.44;5063771;28;20107;-57
2022/08/24 06:59:59;;;;;;;22.23;5.90;;;;;;;30.26;37.02;99584.13;5063609;28;20438;-56
2022/08/24 07:02:25;;;;;;;19.08;5.90;;;;;;;29.68;37.52;99578.59;5064771;28;20471;-57
2022/08/24 07:04:50;;;;;;;21.10;5.53;;;;;;;28.51;39.69;99575.41;5069997;28;20466;-56
2022/08/24 07:07:16;;;;;;;26.10;6.25;;;;;;;29.11;38.65;99580.06;5071131;28;20399;-56
2022/08/24 07:09:41;;;;;;;18.83;5.07;;;;;;;28.71;39.67;99579.06;5065325;28;20374;-56
2022/08/24 07:12:07;;;;;;;22.92;6.30;;;;;;;29.07;38.45;99577.19;5071917;28;20360;-57
2022/08/24 07:14:32;;;;;;;40.72;7.32;;;;;;;28.72;39.45;99579.88;5055444;28;20155;-55
2022/08/24 07:16:58;;;;;;;35.88;6.40;;;;;;;29.63;38.00;99578.84;5058788;28;20037;-56
2022/08/24 07:19:23;;;;;;;29.65;6.13;;;;;;;29.73;38.08;99583.84;5072007;28;20025;-56
2022/08/24 07:21:49;;;;;;;38.38;7.05;;;;;;;29.52;37.59;99588.84;5070045;28;20024;-56
2022/08/24 07:24:14;;;;;;;30.92;6.35;;;;;;;28.86;38.89;99580.22;5071786;28;20039;-56
2022/08/24 07:26:40;;;;;;;42.25;6.68;;;;;;;29.39;38.23;99580.69;5065236;28;20017;-56
2022/08/24 07:29:10;;;;;;;30.17;6.43;;;;;;;29.11;38.43;99585.59;5068738;28;20550;-56
2022/08/24 07:31:37;;;;;;;26.10;6.30;;;;;;;28.76;39.01;99583.53;5053000;28;20436;-56
2022/08/24 07:34:03;;;;;;;26.00;7.05;;;;;;;28.18;39.51;99584.75;5065549;28;20028;-56
2022/08/24 07:36:29;;;;;;;24.25;6.57;;;;;;;27.55;41.07;99584.47;5070703;28;20070;-56
2022/08/24 07:38:56;;;;;;;24.05;5.63;;;;;;;28.44;39.29;99588.19;5065048;28;20060;-56
2022/08/24 07:41:21;;;;;;;30.70;7.05;;;;;;;27.74;40.70;99594.88;5069877;28;20441;-56
2022/08/24 07:43:47;;;;;;;30.80;6.50;;;;;;;28.24;39.63;99584.50;5065118;28;20044;-56
2022/08/24 07:46:12;;;;;;;38.13;6.50;;;;;;;29.24;38.37;99584.31;5061081;28;20652;-56
2022/08/24 07:48:38;;;;;;;24.77;6.63;;;;;;;29.71;37.86;99591.69;5058533;28;20029;-55
2022/08/24 07:51:11;;;;;;;31.75;6.00;;;;;;;29.85;37.01;99592.00;5102131;28;20067;-55
2022/08/24 07:53:37;;;;;;;38.13;6.95;;;;;;;29.87;37.57;99589.63;5080030;28;20046;-56
2022/08/24 07:56:02;;;;;;;45.30;7.05;;;;;;;29.86;36.88;99593.56;5070525;28;20017;-56
2022/08/24 07:58:28;;;;;;;40.13;7.07;;;;;;;29.88;37.21;99602.31;5071034;28;20434;-55
2022/08/24 08:00:53;;;;;;;43.47;7.22;;;;;;;28.88;39.14;99591.72;5066896;28;20028;-56
2022/08/24 08:03:20;;;;;;;35.33;6.60;;;;;;;29.64;38.28;99597.03;5062478;28;20032;-56
2022/08/24 08:05:48;;;;;;;45.05;7.90;;;;;;;29.19;38.73;99599.16;5068636;28;20446;-55
2022/08/24 08:08:13;;;;;;;43.00;8.02;;;;;;;29.09;39.02;99605.25;5065627;28;20101;-55
2022/08/24 08:10:39;;;;;;;43.25;8.15;;;;;;;28.95;38.95;99605.66;5070769;28;20016;-55
2022/08/24 08:13:04;;;;;;;47.55;8.10;;;;;;;28.46;39.66;99600.50;5070656;28;20074;-55
2022/08/24 08:15:30;;;;;;;42.08;7.35;;;;;;;29.24;38.42;99600.88;5069588;28;20024;-56
2022/08/24 08:17:56;;;;;;;49.50;7.88;;;;;;;29.56;38.53;99603.56;5053473;28;20158;-56
2022/08/24 08:20:22;;;;;;;62.92;7.82;;;;;;;30.16;36.93;99604.03;5053896;28;20035;-55
2022/08/24 08:25:31;;;;;;;53.47;8.85;;;;;;;30.62;36.85;99612.41;5060019;28;20474;-54
2022/08/24 08:27:56;;;;;;;28.88;6.57;;;;;;;30.24;36.00;99607.75;5058640;28;20029;-55
2022/08/24 08:30:22;;;;;;;44.72;6.90;;;;;;;29.37;37.41;99610.63;5061849;28;20036;-54
2022/08/24 08:32:48;;;;;;;50.45;8.15;;;;;;;30.13;36.03;99613.06;5068612;28;20400;-55
2022/08/24 08:35:13;;;;;;;89.85;10.38;;;;;;;30.76;36.33;99611.88;5059293;28;20029;-55
2022/08/24 08:37:39;;;;;;;107.65;11.60;;;;;;;30.48;37.61;99609.41;5068809;28;20032;-55
2022/08/24 08:40:06;;;;;;;91.45;9.93;;;;;;;30.36;36.80;99612.34;5053003;28;20025;-54
2022/08/24 08:42:54;;;;;;;96.97;10.82;;;;;;;30.25;37.59;99610.19;5062567;28;20025;-55
2022/08/24 08:45:30;;;;;;;62.10;9.55;;;;;;;31.14;35.96;99605.41;5063515;28;20029;-55
2022/08/24 08:48:01;;;;;;;68.53;8.52;;;;;;;31.68;34.55;99610.97;5059109;28;20619;-55
2022/08/24 08:50:46;;;;;;;58.97;7.45;;;;;;;31.05;35.77;99613.19;5064169;28;20142;-55
2022/08/24 08:53:23;;;;;;;65.00;8.82;;;;;;;31.27;35.02;99610.72;5069892;28;20039;-54
2022/08/24 08:56:17;;;;;;;62.30;8.05;;;;;;;31.75;34.83;99602.72;5064944;28;20187;-55
2022/08/24 08:59:11;;;;;;;65.47;8.05;;;;;;;31.08;34.94;99606.91;5068097;28;20483;-55
2022/08/24 09:01:48;;;;;;;44.88;7.80;;;;;;;32.24;33.03;99604.53;5052139;28;20059;-54
2022/08/24 09:04:46;;;;;;;59.88;8.00;;;;;;;31.69;33.92;99607.00;5065429;28;20116;-55
2022/08/24 09:07:35;;;;;;;43.85;6.53;;;;;;;31.19;34.87;99600.72;5052012;28;20036;-55
2022/08/24 09:10:34;;;;;;;38.65;6.88;;;;;;;31.87;33.78;99601.69;5059982;28;20044;-55
2022/08/24 09:13:16;;;;;;;47.85;7.20;;;;;;;32.73;32.45;99597.91;5053010;28;20090;-54
2022/08/24 09:16:09;;;;;;;52.47;7.10;;;;;;;31.69;34.17;99602.25;5051759;28;20025;-55
2022/08/24 09:19:03;;;;;;;46.78;7.45;;;;;;;31.79;34.02;99603.56;5057900;28;20384;-55
2022/08/24 09:22:02;;;;;;;62.70;8.10;;;;;;;31.92;32.87;99602.13;5062155;28;20044;-54
2022/08/24 09:24:46;;;;;;;60.72;8.25;;;;;;;32.19;32.63;99596.53;5069165;28;20071;-52
2022/08/24 09:27:18;;;;;;;52.50;6.72;;;;;;;31.50;33.34;99594.88;5078248;28;20036;-55
2022/08/24 09:30:10;;;;;;;47.38;6.88;;;;;;;31.45;33.82;99595.22;5066903;28;20064;-55
2022/08/24 09:32:54;;;;;;;26.48;5.72;;;;;;;32.56;32.01;99595.75;5055627;28;20025;-55
2022/08/24 09:35:57;;;;;;;36.17;6.40;;;;;;;33.23;31.32;99589.97;5063313;28;20036;-55
2022/08/24 09:38:30;;;;;;;38.50;6.13;;;;;;;32.09;32.32;99591.69;5068630;28;20082;-54
2022/08/24 09:41:14;;;;;;;36.22;6.55;;;;;;;32.58;32.32;99591.44;5066837;28;20024;-55
2022/08/24 09:43:48;;;;;;;57.70;7.18;;;;;;;33.20;31.05;99587.97;5067752;28;20475;-54
2022/08/24 09:46:35;;;;;;;40.10;6.18;;;;;;;33.82;30.32;99589.13;5064539;28;20391;-55
2022/08/24 09:49:03;;;;;;;28.33;5.55;;;;;;;32.96;31.15;99583.03;5065327;28;20024;-55
2022/08/24 09:51:35;;;;;;;37.00;5.95;;;;;;;32.85;31.10;99582.91;5058248;28;20082;-56
2022/08/24 09:54:19;;;;;;;28.73;5.78;;;;;;;33.92;29.56;99591.97;5073546;28;20024;-55
2022/08/24 09:57:12;;;;;;;29.40;5.18;;;;;;;33.31;30.22;99590.81;5073664;28;20028;-55
2022/08/24 10:00:11;;;;;;;40.75;5.90;;;;;;;33.96;29.77;99588.38;5069462;28;20024;-54
2022/08/24 10:02:43;;;;;;;27.75;5.25;;;;;;;33.22;29.82;99580.03;5084266;28;20028;-55
2022/08/24 10:05:22;;;;;;;28.10;5.70;;;;;;;33.46;30.04;99577.81;5072090;28;20071;-54
2022/08/24 10:08:07;;;;;;;24.88;4.82;;;;;;;33.35;29.98;99577.75;5066021;28;20040;-58
2022/08/24 10:10:51;;;;;;;25.80;5.40;;;;;;;33.59;29.57;99570.75;5057138;28;20041;-55
2022/08/24 10:13:22;;;;;;;14.98;4.55;;;;;;;33.34;29.17;99567.03;5058410;28;20032;-55
2022/08/24 10:15:59;;;;;;;27.80;5.00;;;;;;;33.65;29.27;99563.66;5057761;28;20035;-55
2022/08/24 10:18:34;;;;;;;23.35;4.50;;;;;;;33.82;29.03;99564.09;5065660;28;20031;-55
2022/08/24 10:21:02;;;;;;;18.30;4.60;;;;;;;32.71;30.16;99561.41;5072006;28;20555;-55
2022/08/24 10:23:33;;;;;;;18.17;4.43;;;;;;;32.80;30.13;99558.28;5070460;28;20028;-55
2022/08/24 10:26:50;;;;;;;16.83;4.93;;;;;;;33.71;28.96;99559.28;5062696;28;20138;-55
2022/08/24 10:29:31;;;;;;;9.50;4.10;;;;;;;34.50;27.78;99553.97;5040594;28;20063;-56
2022/08/24 10:32:11;;;;;;;14.73;4.70;;;;;;;33.04;28.20;99545.81;5037883;28;20029;-55
2022/08/24 10:35:04;;;;;;;12.32;4.50;;;;;;;32.60;28.75;99543.88;5100121;28;20028;-55
2022/08/24 10:39:39;;;;;;;12.95;4.22;;;;;;;32.00;29.37;99537.34;5051468;28;20040;-55
2022/08/24 10:41:05;;;;;;;12.02;4.50;;;;;;;33.51;27.75;99538.53;5063118;28;20031;-54
2022/08/24 10:44:04;;;;;;;13.93;4.53;;;;;;;35.15;26.58;99545.63;5050185;28;20075;-55
2022/08/24 10:46:45;;;;;;;17.70;4.57;;;;;;;34.67;26.46;99540.47;5052620;28;20490;-55
2022/08/24 10:49:48;;;;;;;15.45;4.07;;;;;;;34.87;25.51;99540.84;5070739;28;20063;-55
2022/08/24 10:52:48;;;;;;;14.23;4.25;;;;;;;34.58;26.53;99536.09;5065799;28;20033;-54
2022/08/24 10:55:22;;;;;;;16.42;4.90;;;;;;;34.21;26.84;99532.88;5033253;28;20049;-56
2022/08/24 10:58:12;;;;;;;13.30;4.07;;;;;;;32.88;28.01;99533.00;5064073;28;20127;-54
2022/08/24 11:00:38;;;;;;;13.85;4.57;;;;;;;33.70;28.31;99531.91;5064736;28;20480;-53
2022/08/24 11:03:20;;;;;;;14.10;4.28;;;;;;;33.53;28.33;99527.84;5064868;28;20021;-53
2022/08/24 11:05:53;;;;;;;11.52;4.30;;;;;;;34.43;27.29;99534.47;5065217;28;20076;-54
2022/08/24 11:08:24;;;;;;;12.90;4.28;;;;;;;34.29;27.37;99537.25;5053065;28;20040;-54
2022/08/24 11:11:08;;;;;;;13.40;4.30;;;;;;;35.16;26.48;99530.47;5065094;28;20032;-55
2022/08/24 11:13:35;;;;;;;19.98;4.72;;;;;;;34.02;26.68;99529.19;5059929;28;20028;-54
2022/08/24 11:16:01;;;;;;;22.48;4.30;;;;;;;34.20;27.12;99520.13;5054926;28;20083;-55
2022/08/24 11:18:48;;;;;;;16.67;4.88;;;;;;;33.87;26.98;99520.06;5071462;28;20060;-54
2022/08/24 11:21:54;;;;;;;11.63;4.53;;;;;;;32.84;26.93;99518.28;5060959;28;20025;-54
2022/08/24 11:24:25;;;;;;;20.63;4.45;;;;;;;30.93;29.70;99516.53;4993472;28;20038;-55
2022/08/24 11:27:09;;;;;;;18.13;4.78;;;;;;;33.08;27.47;99510.56;5042738;28;20287;-55
2022/08/24 11:29:53;;;;;;;12.55;4.60;;;;;;;34.34;26.53;99511.81;5066298;28;20513;-54
2022/08/24 11:32:24;;;;;;;14.95;4.93;;;;;;;33.72;26.76;99505.31;5069562;28;20105;-56
2022/08/24 11:34:50;;;;;;;11.27;4.72;;;;;;;31.15;28.78;99504.59;5059384;28;20172;-55
2022/08/24 11:37:16;;;;;;;11.73;4.70;;;;;;;32.79;27.82;99502.00;5063947;28;20479;-56
2022/08/24 11:39:41;;;;;;;9.00;4.30;;;;;;;32.66;27.36;99500.72;5065613;28;20483;-55
2022/08/24 11:42:34;;;;;;;8.77;4.18;;;;;;;33.05;27.16;99500.19;5073000;28;20032;-53
2022/08/24 11:45:22;;;;;;;11.25;4.45;;;;;;;32.02;27.94;99493.38;5071054;28;20112;-53
2022/08/24 11:47:59;;;;;;;10.55;4.43;;;;;;;33.43;26.52;99503.59;5100881;28;20064;-56
2022/08/24 11:50:44;;;;;;;14.45;4.30;;;;;;;32.16;27.23;99501.06;5067030;28;20073;-54